createdAt,value
2022-08-29T00:00:21.043Z,2.73
2022-08-29T00:02:49.402Z,2.70
2022-08-29T00:05:17.411Z,2.77
2022-08-29T00:07:44.589Z,2.40
2022-08-29T00:10:11.718Z,2.43
2022-08-29T00:12:39.210Z,2.67
2022-08-29T00:15:07.079Z,2.83
2022-08-29T00:17:34.316Z,2.80
2022-08-29T00:20:01.733Z,2.70
2022-08-29T00:22:28.924Z,2.60
2022-08-29T00:24:56.069Z,2.90
2022-08-29T00:27:23.262Z,2.30
2022-08-29T00:29:50.429Z,2.57
2022-08-29T00:32:17.588Z,2.93
2022-08-29T00:34:44.702Z,2.57
2022-08-29T00:37:11.842Z,2.97
2022-08-29T00:39:39.898Z,2.77
2022-08-29T00:42:07.128Z,2.77
2022-08-29T00:44:34.585Z,2.90
2022-08-29T00:47:07.789Z,2.67
2022-08-29T00:49:39.323Z,2.67
2022-08-29T00:52:08.638Z,2.50
2022-08-29T00:54:35.831Z,2.80
2022-08-29T00:57:03.164Z,2.60
2022-08-29T00:59:35.359Z,2.90
2022-08-29T01:02:04.693Z,2.77
2022-08-29T01:04:33.250Z,2.37
2022-08-29T01:07:00.899Z,2.80
2022-08-29T01:09:28.717Z,2.80
2022-08-29T01:12:14.940Z,3.00
2022-08-29T01:14:47.817Z,2.63
2022-08-29T01:17:17.041Z,2.73
2022-08-29T01:19:52.767Z,3.20
2022-08-29T01:22:29.426Z,3.00
2022-08-29T01:24:57.340Z,2.80
2022-08-29T01:27:27.557Z,2.63
2022-08-29T01:29:54.722Z,2.70
2022-08-29T01:32:22.349Z,3.13
2022-08-29T01:34:49.533Z,2.80
2022-08-29T01:37:17.324Z,2.73
2022-08-29T01:39:45.892Z,3.23
2022-08-29T01:42:22.842Z,2.90
2022-08-29T01:44:55.648Z,2.73
2022-08-29T01:47:25.210Z,2.73
2022-08-29T01:49:52.432Z,2.60
2022-08-29T01:52:19.755Z,3.03
2022-08-29T01:54:47.335Z,2.90
2022-08-29T01:57:14.809Z,3.00
2022-08-29T01:59:42.561Z,2.97
2022-08-29T02:02:09.742Z,2.83
2022-08-29T02:04:36.991Z,3.10
2022-08-29T02:07:05.695Z,2.90
2022-08-29T02:09:34.818Z,2.90
2022-08-29T02:12:07.161Z,3.00
2022-08-29T02:14:35.859Z,3.13
2022-08-29T02:17:03.495Z,3.00
2022-08-29T02:19:30.640Z,2.80
2022-08-29T02:21:57.797Z,2.73
2022-08-29T02:24:26.311Z,2.80
2022-08-29T02:26:54.198Z,2.90
2022-08-29T02:29:21.341Z,3.53
2022-08-29T02:31:48.793Z,3.10
2022-08-29T02:34:16.193Z,3.13
2022-08-29T02:36:44.453Z,3.57
2022-08-29T02:39:11.932Z,3.43
2022-08-29T02:41:39.109Z,2.80
2022-08-29T02:44:08.341Z,3.00
2022-08-29T02:46:35.531Z,3.17
2022-08-29T02:49:02.640Z,2.80
2022-08-29T02:51:31.422Z,3.20
2022-08-29T02:53:58.947Z,2.90
2022-08-29T02:56:26.216Z,2.80
2022-08-29T02:58:53.543Z,2.83
2022-08-29T03:01:21.558Z,3.20
2022-08-29T03:03:50.322Z,3.03
2022-08-29T03:06:18.382Z,2.90
2022-08-29T03:08:45.505Z,3.03
2022-08-29T03:11:12.633Z,2.70
2022-08-29T03:13:39.807Z,3.47
2022-08-29T03:16:07.027Z,2.87
2022-08-29T03:18:34.234Z,2.90
2022-08-29T03:21:01.877Z,3.40
2022-08-29T03:23:29.032Z,2.90
2022-08-29T03:25:56.184Z,3.30
2022-08-29T03:28:23.340Z,3.10
2022-08-29T03:30:50.780Z,3.33
2022-08-29T03:33:18.536Z,3.00
2022-08-29T03:35:45.670Z,3.40
2022-08-29T03:38:12.982Z,3.40
2022-08-29T03:40:41.199Z,3.03
2022-08-29T03:43:09.470Z,3.00
2022-08-29T03:45:36.786Z,3.13
2022-08-29T03:48:04.177Z,3.30
2022-08-29T03:50:31.411Z,2.83
2022-08-29T03:52:59.491Z,3.27
2022-08-29T03:55:26.659Z,3.40
2022-08-29T03:57:55.687Z,3.50
2022-08-29T04:00:23.072Z,2.97
2022-08-29T04:02:52.003Z,2.87
2022-08-29T04:05:19.264Z,2.80
2022-08-29T04:07:51.084Z,3.23
2022-08-29T04:10:20.812Z,2.80
2022-08-29T04:12:52.461Z,3.00
2022-08-29T04:15:21.882Z,2.83
2022-08-29T04:17:52.972Z,3.07
2022-08-29T04:20:24.768Z,3.30
2022-08-29T04:22:52.153Z,3.30
2022-08-29T04:25:19.327Z,3.30
2022-08-29T04:27:46.504Z,3.30
2022-08-29T04:30:16.816Z,2.93
2022-08-29T04:32:43.981Z,2.80
2022-08-29T04:35:12.651Z,3.30
2022-08-29T04:37:40.641Z,2.77
2022-08-29T04:40:09.044Z,3.17
2022-08-29T04:42:37.336Z,3.00
2022-08-29T04:45:05.773Z,3.37
2022-08-29T04:47:32.935Z,2.83
2022-08-29T04:50:00.322Z,2.93
2022-08-29T04:52:28.679Z,2.97
2022-08-29T04:54:56.232Z,3.67
2022-08-29T04:57:24.686Z,2.93
2022-08-29T04:59:55.992Z,3.07
2022-08-29T05:02:24.339Z,3.40
2022-08-29T05:04:52.960Z,2.93
2022-08-29T05:07:27.370Z,2.93
2022-08-29T05:10:02.215Z,3.10
2022-08-29T05:12:30.478Z,3.00
2022-08-29T05:14:58.187Z,2.97
2022-08-29T05:17:25.451Z,2.58
2022-08-29T05:19:52.793Z,2.80
2022-08-29T05:22:20.386Z,2.80
2022-08-29T05:24:48.841Z,2.77
2022-08-29T05:27:17.459Z,2.60
2022-08-29T05:29:45.677Z,2.70
2022-08-29T05:32:14.918Z,2.60
2022-08-29T05:34:42.978Z,2.35
2022-08-29T05:37:11.306Z,2.83
2022-08-29T05:39:39.148Z,2.70
2022-08-29T05:42:07.281Z,2.83
2022-08-29T05:44:35.871Z,2.80
2022-08-29T05:47:06.689Z,2.63
2022-08-29T05:49:35.733Z,2.30
2022-08-29T05:52:02.936Z,2.67
2022-08-29T05:54:32.685Z,2.83
2022-08-29T05:56:59.818Z,2.72
2022-08-29T05:59:27.019Z,2.30
2022-08-29T06:01:54.160Z,2.65
2022-08-29T06:04:21.280Z,2.85
2022-08-29T06:06:48.468Z,2.53
2022-08-29T06:09:15.625Z,2.30
2022-08-29T06:11:46.240Z,2.80
2022-08-29T06:14:14.635Z,2.60
2022-08-29T06:16:41.838Z,2.58
2022-08-29T06:19:09.534Z,2.50
2022-08-29T06:21:36.705Z,2.33
2022-08-29T06:24:04.089Z,2.45
2022-08-29T06:26:31.533Z,2.63
2022-08-29T06:28:58.776Z,2.63
2022-08-29T06:31:29.128Z,2.60
2022-08-29T06:33:58.279Z,2.50
2022-08-29T06:36:25.815Z,2.60
2022-08-29T06:38:53.490Z,2.40
2022-08-29T06:41:20.653Z,2.50
2022-08-29T06:43:47.775Z,2.38
2022-08-29T06:46:23.244Z,2.63
2022-08-29T06:48:50.790Z,2.63
2022-08-29T06:51:17.981Z,2.50
2022-08-29T06:53:45.482Z,2.22
2022-08-29T06:56:13.626Z,2.60
2022-08-29T06:58:42.023Z,2.80
2022-08-29T07:01:10.397Z,2.30
2022-08-29T07:03:37.575Z,2.40
2022-08-29T07:06:04.876Z,2.25
2022-08-29T07:08:32.585Z,2.40
2022-08-29T07:10:59.944Z,2.40
2022-08-29T07:13:27.287Z,2.47
2022-08-29T07:15:54.483Z,2.00
2022-08-29T07:18:21.783Z,2.70
2022-08-29T07:20:49.211Z,2.72
2022-08-29T07:23:16.544Z,2.42
2022-08-29T07:25:43.813Z,2.75
2022-08-29T07:28:10.999Z,2.38
2022-08-29T07:30:38.564Z,2.47
2022-08-29T07:33:05.901Z,2.58
2022-08-29T07:35:33.403Z,2.30
2022-08-29T07:38:04.113Z,2.50
2022-08-29T07:40:31.375Z,2.53
2022-08-29T07:42:58.639Z,2.47
2022-08-29T07:45:25.863Z,2.60
2022-08-29T07:47:53.045Z,2.78
2022-08-29T07:50:20.193Z,2.70
2022-08-29T07:52:48.491Z,2.72
2022-08-29T07:55:15.685Z,2.85
2022-08-29T07:57:42.822Z,2.47
2022-08-29T08:00:11.841Z,2.83
2022-08-29T08:02:39.198Z,2.63
2022-08-29T08:05:07.409Z,2.15
2022-08-29T08:07:36.036Z,2.33
2022-08-29T08:10:08.019Z,2.53
2022-08-29T08:12:35.156Z,2.42
2022-08-29T08:15:03.558Z,2.60
2022-08-29T08:17:30.709Z,2.63
2022-08-29T08:19:57.828Z,2.70
2022-08-29T08:22:24.957Z,2.83
2022-08-29T08:24:52.398Z,2.83
2022-08-29T08:27:19.523Z,2.60
2022-08-29T08:29:46.648Z,2.70
2022-08-29T08:32:14.791Z,2.83
2022-08-29T08:34:43.014Z,2.65
2022-08-29T08:37:10.621Z,2.88
2022-08-29T08:39:38.128Z,2.50
2022-08-29T08:42:07.069Z,2.70
2022-08-29T08:44:42.016Z,2.65
2022-08-29T08:47:10.417Z,2.80
2022-08-29T08:49:50.011Z,2.30
2022-08-29T08:52:23.444Z,2.65
2022-08-29T08:54:53.232Z,3.17
2022-08-29T08:57:22.107Z,2.60
2022-08-29T08:59:59.143Z,3.03
2022-08-29T09:02:32.511Z,2.92
2022-08-29T09:04:59.816Z,3.40
2022-08-29T09:07:40.138Z,2.67
2022-08-29T09:10:22.209Z,2.92
2022-08-29T09:12:58.583Z,2.78
2022-08-29T09:15:32.749Z,2.85
2022-08-29T09:18:02.897Z,3.55
2022-08-29T09:20:34.827Z,2.80
2022-08-29T09:23:03.282Z,3.08
2022-08-29T09:25:31.569Z,2.70
2022-08-29T09:27:59.181Z,3.00
2022-08-29T09:30:31.035Z,3.10
2022-08-29T09:33:03.687Z,3.10
2022-08-29T09:35:42.595Z,2.90
2022-08-29T09:38:11.010Z,2.97
2022-08-29T09:40:44.439Z,3.45
2022-08-29T09:43:17.459Z,3.20
2022-08-29T09:46:02.830Z,3.10
2022-08-29T09:48:35.368Z,2.90
2022-08-29T09:51:13.405Z,2.88
2022-08-29T09:53:41.398Z,3.35
2022-08-29T09:56:10.764Z,3.38
2022-08-29T09:58:40.432Z,3.00
2022-08-29T10:01:12.712Z,3.10
2022-08-29T10:03:42.898Z,3.15
2022-08-29T10:06:10.917Z,3.25
2022-08-29T10:08:39.186Z,3.45
2022-08-29T10:11:08.979Z,2.97
2022-08-29T10:14:03.396Z,3.38
2022-08-29T10:16:34.856Z,3.33
2022-08-29T10:19:08.638Z,3.30
2022-08-29T10:21:35.758Z,3.10
2022-08-29T10:24:14.696Z,3.63
2022-08-29T10:27:07.487Z,2.90
2022-08-29T10:29:40.429Z,3.42
2022-08-29T10:32:07.720Z,3.40
2022-08-29T10:34:48.926Z,3.47
2022-08-29T10:37:51.707Z,2.97
2022-08-29T10:40:38.153Z,3.25
2022-08-29T10:43:13.405Z,3.28
2022-08-29T10:46:06.671Z,3.40
2022-08-29T10:48:38.552Z,3.03
2022-08-29T10:51:05.750Z,3.15
2022-08-29T10:53:39.685Z,3.30
2022-08-29T10:56:20.680Z,2.92
2022-08-29T10:58:56.368Z,3.38
2022-08-29T11:01:26.139Z,3.15
2022-08-29T11:03:58.581Z,3.03
2022-08-29T11:06:28.258Z,3.45
2022-08-29T11:09:14.601Z,2.72
2022-08-29T11:11:45.983Z,2.58
2022-08-29T11:14:21.081Z,3.08
2022-08-29T11:16:49.530Z,2.92
2022-08-29T11:19:29.502Z,3.05
2022-08-29T11:22:03.280Z,2.65
2022-08-29T11:24:34.805Z,2.75
2022-08-29T11:27:22.868Z,2.53
2022-08-29T11:29:58.016Z,3.00
2022-08-29T11:32:28.219Z,2.80
2022-08-29T11:35:06.203Z,2.83
2022-08-29T11:37:48.817Z,2.78
2022-08-29T11:41:25.866Z,2.53
2022-08-29T11:43:14.803Z,3.20
2022-08-29T11:45:43.977Z,2.65
2022-08-29T11:48:11.103Z,2.80
2022-08-29T11:50:38.973Z,2.92
2022-08-29T11:53:23.706Z,2.65
2022-08-29T11:56:09.579Z,2.75
2022-08-29T11:58:38.873Z,2.90
2022-08-29T12:01:06.763Z,2.60
2022-08-29T12:03:39.241Z,2.90
2022-08-29T12:06:06.500Z,2.95
2022-08-29T12:08:38.207Z,2.90
2022-08-29T12:11:06.763Z,2.78
2022-08-29T12:13:49.071Z,2.75
2022-08-29T12:16:20.496Z,2.80
2022-08-29T12:18:52.797Z,2.58
2022-08-29T12:21:32.679Z,2.28
2022-08-29T12:23:59.998Z,2.50
2022-08-29T12:26:39.251Z,2.47
2022-08-29T12:29:10.590Z,2.55
2022-08-29T12:31:51.383Z,2.45
2022-08-29T12:34:23.836Z,2.53
2022-08-29T12:36:59.891Z,2.40
2022-08-29T12:39:29.775Z,2.70
2022-08-29T12:41:59.642Z,2.65
2022-08-29T12:44:36.256Z,2.67
2022-08-29T12:47:08.312Z,2.38
2022-08-29T12:49:38.206Z,2.30
2022-08-29T12:52:07.370Z,2.67
2022-08-29T12:54:36.304Z,2.55
2022-08-29T12:57:04.366Z,2.53
2022-08-29T12:59:31.749Z,2.50
2022-08-29T13:01:59.288Z,2.50
2022-08-29T13:04:36.348Z,2.17
2022-08-29T13:07:05.228Z,2.38
2022-08-29T13:09:32.671Z,2.58
2022-08-29T13:12:10.325Z,2.47
2022-08-29T13:14:50.949Z,2.47
2022-08-29T13:17:19.572Z,2.33
2022-08-29T13:20:19.231Z,2.30
2022-08-29T13:22:46.383Z,2.53
2022-08-29T13:25:16.268Z,2.67
2022-08-29T13:27:43.859Z,2.33
2022-08-29T13:30:21.155Z,2.28
2022-08-29T13:32:52.569Z,2.40
2022-08-29T13:35:32.632Z,2.53
2022-08-29T13:38:10.460Z,2.95
2022-08-29T13:40:49.332Z,2.55
2022-08-29T13:43:31.779Z,2.60
2022-08-29T13:46:11.709Z,2.30
2022-08-29T13:48:42.536Z,2.50
2022-08-29T13:51:09.678Z,2.40
2022-08-29T13:53:37.122Z,2.10
2022-08-29T13:56:04.765Z,2.20
2022-08-29T13:58:32.878Z,2.30
2022-08-29T14:01:00.193Z,2.30
2022-08-29T14:03:28.690Z,2.28
2022-08-29T14:05:56.554Z,2.33
2022-08-29T14:08:25.046Z,2.00
2022-08-29T14:10:52.678Z,2.47
2022-08-29T14:13:19.853Z,2.10
2022-08-29T14:15:47.048Z,2.45
2022-08-29T14:18:16.114Z,2.53
2022-08-29T14:20:43.497Z,2.65
2022-08-29T14:23:10.678Z,2.03
2022-08-29T14:25:38.593Z,2.25
2022-08-29T14:28:05.794Z,2.13
2022-08-29T14:30:33.015Z,2.10
2022-08-29T14:33:00.209Z,2.08
2022-08-29T14:35:31.870Z,2.10
2022-08-29T14:37:59.706Z,2.58
2022-08-29T14:40:28.937Z,2.20
2022-08-29T14:42:56.346Z,2.63
2022-08-29T14:45:23.514Z,2.20
2022-08-29T14:47:50.658Z,2.30
2022-08-29T14:50:18.086Z,2.30
2022-08-29T14:52:45.239Z,2.83
2022-08-29T14:55:13.083Z,2.20
2022-08-29T14:57:40.395Z,2.47
2022-08-29T15:00:13.374Z,2.40
2022-08-29T15:02:41.229Z,2.40
2022-08-29T15:05:08.624Z,2.03
2022-08-29T15:07:35.800Z,2.28
2022-08-29T15:10:02.932Z,2.10
2022-08-29T15:12:30.090Z,2.35
2022-08-29T15:14:57.728Z,2.63
2022-08-29T15:17:25.371Z,2.40
2022-08-29T15:20:34.341Z,2.20
2022-08-29T15:22:40.495Z,2.22
2022-08-29T15:25:07.911Z,2.00
2022-08-29T15:27:35.030Z,1.98
2022-08-29T15:30:02.945Z,2.20
2022-08-29T15:32:30.119Z,2.35
2022-08-29T15:34:57.386Z,2.40
2022-08-29T15:37:24.517Z,2.00
2022-08-29T15:39:54.506Z,2.20
2022-08-29T15:42:28.502Z,2.63
2022-08-29T15:44:55.986Z,2.33
2022-08-29T15:47:26.295Z,2.45
2022-08-29T15:49:53.757Z,2.20
2022-08-29T15:52:20.924Z,2.50
2022-08-29T15:54:48.069Z,1.98
2022-08-29T15:57:15.211Z,2.38
2022-08-29T15:59:57.471Z,2.40
2022-08-29T16:02:25.583Z,2.25
2022-08-29T16:04:56.785Z,2.25
2022-08-29T16:07:29.310Z,2.72
2022-08-29T16:09:57.046Z,2.28
2022-08-29T16:12:24.195Z,2.20
2022-08-29T16:15:00.465Z,2.60
2022-08-29T16:17:32.596Z,2.47
2022-08-29T16:20:00.977Z,2.58
2022-08-29T16:22:28.634Z,2.67
2022-08-29T16:24:55.935Z,2.65
2022-08-29T16:27:24.414Z,2.45
2022-08-29T16:29:52.129Z,2.30
2022-08-29T16:32:19.274Z,2.55
2022-08-29T16:34:46.444Z,2.40
2022-08-29T16:37:13.566Z,2.42
2022-08-29T16:39:40.714Z,2.60
2022-08-29T16:42:08.065Z,2.40
2022-08-29T16:44:35.246Z,2.42
2022-08-29T16:47:02.361Z,2.40
2022-08-29T16:49:29.565Z,2.33
2022-08-29T16:51:57.528Z,2.53
2022-08-29T16:54:24.695Z,2.50
2022-08-29T16:56:52.801Z,2.47
2022-08-29T16:59:19.931Z,2.35
2022-08-29T17:01:51.348Z,2.55
2022-08-29T17:04:20.233Z,2.33
2022-08-29T17:06:48.228Z,2.28
2022-08-29T17:09:16.244Z,2.70
2022-08-29T17:11:43.413Z,3.00
2022-08-29T17:14:10.951Z,2.78
2022-08-29T17:16:38.838Z,2.95
2022-08-29T17:19:07.258Z,2.90
2022-08-29T17:21:34.966Z,3.15
2022-08-29T17:24:02.806Z,2.92
2022-08-29T17:26:30.446Z,3.00
2022-08-29T17:28:57.722Z,2.90
2022-08-29T17:31:24.905Z,3.03
2022-08-29T17:33:52.285Z,3.03
2022-08-29T17:36:19.511Z,3.00
2022-08-29T17:38:47.705Z,2.60
2022-08-29T17:41:17.288Z,2.45
2022-08-29T17:43:45.343Z,2.85
2022-08-29T17:46:12.639Z,3.00
2022-08-29T17:48:40.469Z,2.70
2022-08-29T17:51:07.679Z,3.28
2022-08-29T17:53:34.901Z,3.30
2022-08-29T17:56:18.378Z,3.33
2022-08-29T17:58:45.677Z,3.40
2022-08-29T18:01:16.589Z,3.15
2022-08-29T18:03:45.383Z,3.00
2022-08-29T18:06:14.543Z,2.80
2022-08-29T18:08:42.835Z,3.40
2022-08-29T18:11:15.629Z,2.80
2022-08-29T18:13:42.796Z,2.72
2022-08-29T18:16:10.654Z,3.35
2022-08-29T18:18:39.240Z,3.33
2022-08-29T18:21:06.451Z,3.13
2022-08-29T18:23:33.748Z,2.92
2022-08-29T18:26:01.056Z,3.00
2022-08-29T18:28:28.584Z,2.58
2022-08-29T18:30:55.815Z,2.70
2022-08-29T18:33:23.203Z,2.53
2022-08-29T18:35:51.883Z,2.28
2022-08-29T18:38:19.383Z,2.60
2022-08-29T18:40:47.230Z,2.50
2022-08-29T18:43:18.326Z,2.50
2022-08-29T18:45:45.864Z,2.60
2022-08-29T18:48:13.109Z,3.15
2022-08-29T18:50:40.475Z,2.88
2022-08-29T18:53:07.788Z,2.70
2022-08-29T18:55:35.203Z,2.90
2022-08-29T18:58:02.682Z,2.53
2022-08-29T19:00:29.903Z,2.75
2022-08-29T19:02:57.764Z,2.85
2022-08-29T19:05:26.341Z,2.42
2022-08-29T19:07:53.936Z,2.83
2022-08-29T19:10:21.449Z,2.60
2022-08-29T19:12:49.089Z,2.80
2022-08-29T19:15:17.875Z,2.75
2022-08-29T19:17:45.103Z,2.95
2022-08-29T19:20:33.234Z,2.80
2022-08-29T19:23:00.806Z,2.60
2022-08-29T19:25:28.618Z,2.80
2022-08-29T19:27:55.825Z,2.87
2022-08-29T19:30:23.722Z,2.90
2022-08-29T19:32:51.163Z,2.80
2022-08-29T19:35:18.425Z,2.40
2022-08-29T19:37:45.661Z,2.80
2022-08-29T19:40:14.584Z,2.50
2022-08-29T19:42:42.077Z,2.67
2022-08-29T19:45:10.661Z,2.70
2022-08-29T19:47:38.312Z,2.40
2022-08-29T19:50:07.116Z,2.40
2022-08-29T19:52:34.566Z,3.17
2022-08-29T19:55:03.266Z,2.17
2022-08-29T19:57:30.693Z,2.43
2022-08-29T19:59:57.827Z,2.53
2022-08-29T20:02:26.317Z,2.30
2022-08-29T20:04:53.708Z,2.30
2022-08-29T20:07:20.920Z,2.20
2022-08-29T20:09:48.129Z,2.30
2022-08-29T20:12:15.285Z,2.60
2022-08-29T20:14:42.537Z,2.53
2022-08-29T20:17:11.604Z,2.30
2022-08-29T20:19:39.417Z,2.30
2022-08-29T20:22:07.198Z,2.50
2022-08-29T20:24:34.596Z,2.37
2022-08-29T20:27:02.469Z,2.30
2022-08-29T20:29:30.165Z,2.10
2022-08-29T20:31:59.071Z,2.70
2022-08-29T20:34:29.366Z,2.87
2022-08-29T20:37:08.939Z,2.30
2022-08-29T20:39:37.238Z,2.23
2022-08-29T20:42:05.531Z,2.10
2022-08-29T20:44:37.570Z,2.50
2022-08-29T20:47:05.951Z,2.43
2022-08-29T20:49:33.550Z,2.13
2022-08-29T20:52:01.327Z,2.93
2022-08-29T20:54:28.486Z,2.60
2022-08-29T20:56:56.077Z,2.50
2022-08-29T20:59:26.565Z,2.37
2022-08-29T21:01:55.361Z,2.40
2022-08-29T21:04:41.164Z,2.20
2022-08-29T21:07:09.805Z,2.40
2022-08-29T21:09:40.220Z,2.50
2022-08-29T21:12:07.713Z,2.47
2022-08-29T21:14:35.017Z,2.40
2022-08-29T21:17:02.627Z,2.00
2022-08-29T21:19:29.969Z,2.60
2022-08-29T21:21:58.431Z,2.40
2022-08-29T21:24:26.000Z,2.20
2022-08-29T21:26:53.651Z,2.27
2022-08-29T21:29:20.987Z,2.10
2022-08-29T21:31:48.916Z,2.67
2022-08-29T21:34:16.661Z,2.47
2022-08-29T21:36:43.796Z,2.30
2022-08-29T21:39:11.766Z,2.00
2022-08-29T21:41:41.342Z,2.30
2022-08-29T21:44:08.646Z,2.30
2022-08-29T21:46:37.473Z,2.60
2022-08-29T21:49:05.854Z,2.40
2022-08-29T21:51:34.450Z,2.30
2022-08-29T21:54:02.100Z,2.60
2022-08-29T21:56:30.348Z,2.47
2022-08-29T21:58:57.759Z,2.30
2022-08-29T22:04:53.926Z,2.50
2022-08-29T22:07:22.281Z,2.80
2022-08-29T22:09:49.390Z,2.90
2022-08-29T22:12:16.520Z,2.67
2022-08-29T22:15:02.513Z,2.60
2022-08-29T22:17:29.618Z,2.90
2022-08-29T22:19:56.739Z,2.60
2022-08-29T22:22:24.021Z,2.70
2022-08-29T22:24:51.145Z,2.33
2022-08-29T22:27:18.348Z,2.70
2022-08-29T22:29:45.475Z,2.60
2022-08-29T22:32:13.908Z,2.27
2022-08-29T22:34:41.350Z,2.73
2022-08-29T22:37:08.755Z,2.60
2022-08-29T22:39:35.913Z,2.50
2022-08-29T22:42:03.015Z,2.97
2022-08-29T22:47:18.692Z,2.60
2022-08-29T22:49:46.207Z,2.40
2022-08-29T22:52:13.344Z,2.67
2022-08-29T22:54:40.898Z,2.40
2022-08-29T22:57:13.610Z,2.40
2022-08-29T22:59:41.596Z,2.40
2022-08-29T23:02:09.419Z,2.63
2022-08-29T23:04:37.434Z,2.80
2022-08-29T23:07:05.256Z,2.80
2022-08-29T23:09:35.550Z,2.67
2022-08-29T23:12:03.280Z,2.67
2022-08-29T23:14:32.087Z,2.73
2022-08-29T23:16:59.206Z,2.80
2022-08-29T23:19:26.595Z,2.60
2022-08-29T23:21:56.071Z,2.73
2022-08-29T23:24:25.052Z,2.77
2022-08-29T23:26:52.239Z,2.60
2022-08-29T23:29:19.605Z,2.43
2022-08-29T23:31:46.796Z,2.70
2022-08-29T23:34:14.205Z,2.60
2022-08-29T23:36:41.335Z,2.80
2022-08-29T23:39:08.700Z,2.60
2022-08-29T23:41:36.140Z,2.43
2022-08-29T23:44:03.520Z,3.10
2022-08-29T23:46:30.738Z,2.83
2022-08-29T23:48:58.381Z,2.80
2022-08-29T23:51:25.515Z,2.77
2022-08-29T23:53:52.768Z,2.70
2022-08-29T23:56:20.810Z,2.60
2022-08-29T23:58:48.101Z,2.70
